Time;durP1;ratioP1;P1;durP2;ratioP2;P2;SDS_P1;SDS_P2;PMS_P1;PMS_P2;Temp;Humidity;BMP_temperature;BMP_pressure;BME280_temperature;BME280_humidity;BME280_pressure;Samples;Min_cycle;Max_cycle;Signal;HPM_P1;HPM_P2
2022/03/08 00:01:02;;;;;;;6.63;3.60;;;5.20;96.30;;;;;;5163269;22;20044;-65
2022/03/08 00:03:04;;;;;;;4.72;3.15;;;5.10;93.70;;;;;;5162891;22;20099;-65
2022/03/08 00:05:05;;;;;;;6.35;4.00;;;5.10;92.60;;;;;;5163141;22;20020;-66
2022/03/08 00:07:06;;;;;;;7.78;3.97;;;5.20;95.20;;;;;;5162740;22;20079;-65
2022/03/08 00:09:07;;;;;;;6.85;3.63;;;5.10;91.30;;;;;;5163312;22;20012;-65
2022/03/08 00:11:08;;;;;;;5.20;3.45;;;5.10;93.20;;;;;;5163105;22;20008;-65
2022/03/08 00:13:09;;;;;;;5.93;4.03;;;5.10;92.80;;;;;;5163781;22;20040;-65
2022/03/08 00:15:11;;;;;;;5.72;3.65;;;5.10;91.60;;;;;;5160904;23;20097;-66
2022/03/08 00:17:11;;;;;;;7.18;4.20;;;5.10;94.50;;;;;;5163648;22;20333;-65
2022/03/08 00:19:12;;;;;;;6.30;3.58;;;5.10;93.60;;;;;;5163655;22;20024;-65
2022/03/08 00:21:13;;;;;;;7.05;3.70;;;5.10;95.30;;;;;;5163150;22;20015;-65
2022/03/08 00:23:14;;;;;;;9.45;4.15;;;5.10;95.20;;;;;;5163751;22;20459;-65
2022/03/08 00:25:15;;;;;;;4.90;3.33;;;5.00;91.30;;;;;;5162282;22;20004;-65
2022/03/08 00:27:16;;;;;;;8.77;4.70;;;5.00;94.20;;;;;;5163234;22;20309;-66
2022/03/08 00:29:16;;;;;;;5.22;3.83;;;4.80;90.20;;;;;;5163602;22;20164;-65
2022/03/08 00:31:17;;;;;;;4.93;3.72;;;4.70;90.10;;;;;;5162674;22;20066;-65
2022/03/08 00:33:18;;;;;;;5.82;3.97;;;4.70;92.20;;;;;;5163399;22;20008;-65
2022/03/08 00:35:19;;;;;;;7.30;4.40;;;4.70;92.20;;;;;;5162734;22;20123;-65
2022/03/08 00:37:20;;;;;;;6.38;4.15;;;4.70;95.00;;;;;;5163233;22;20075;-65
2022/03/08 00:39:20;;;;;;;5.25;3.55;;;4.70;93.60;;;;;;5163358;22;20071;-65
2022/03/08 00:41:21;;;;;;;6.43;3.90;;;4.80;97.60;;;;;;5161921;22;20031;-65
2022/03/08 00:43:21;;;;;;;7.00;3.55;;;4.70;94.60;;;;;;5164735;22;20016;-65
2022/03/08 00:45:22;;;;;;;6.47;3.80;;;4.80;95.50;;;;;;5163906;22;20016;-65
2022/03/08 00:47:23;;;;;;;6.90;3.55;;;4.80;94.20;;;;;;5165120;22;20079;-65
2022/03/08 00:49:24;;;;;;;5.75;3.42;;;4.80;92.60;;;;;;5165051;22;20019;-65
2022/03/08 00:51:25;;;;;;;5.10;3.78;;;4.70;92.00;;;;;;5164088;22;20360;-66
2022/03/08 00:53:25;;;;;;;7.82;3.97;;;4.60;92.40;;;;;;5164686;22;20012;-65
2022/03/08 00:55:29;;;;;;;6.85;4.28;;;4.60;92.70;;;;;;5163560;22;20014;-65
2022/03/08 00:57:29;;;;;;;8.32;4.60;;;4.60;94.90;;;;;;5164704;22;20066;-65
2022/03/08 00:59:30;;;;;;;6.65;4.57;;;4.30;90.90;;;;;;5162679;22;20008;-65
2022/03/08 01:01:31;;;;;;;7.15;3.53;;;4.30;91.70;;;;;;5162094;22;20027;-65
2022/03/08 01:03:32;;;;;;;8.02;3.55;;;4.30;92.20;;;;;;5164187;22;20012;-65
2022/03/08 01:05:32;;;;;;;5.72;3.50;;;4.30;95.80;;;;;;5163679;22;20012;-65
2022/03/08 01:07:33;;;;;;;5.65;3.95;;;4.40;93.70;;;;;;5164608;22;20023;-65
2022/03/08 01:09:34;;;;;;;5.85;3.75;;;4.40;98.70;;;;;;5164291;22;20012;-65
2022/03/08 01:11:36;;;;;;;9.13;3.78;;;4.50;99.90;;;;;;5163764;22;20017;-65
2022/03/08 01:13:37;;;;;;;6.05;3.60;;;4.40;93.20;;;;;;5161363;23;20020;-65
2022/03/08 01:15:38;;;;;;;7.32;3.65;;;4.50;97.70;;;;;;5163470;22;20008;-65
2022/03/08 01:17:39;;;;;;;6.53;3.45;;;4.40;93.20;;;;;;5163822;22;20062;-65
2022/03/08 01:19:39;;;;;;;6.50;3.38;;;4.40;95.70;;;;;;5163818;22;20367;-65
2022/03/08 01:21:40;;;;;;;7.03;3.83;;;4.40;95.70;;;;;;5163315;22;20013;-65
2022/03/08 01:23:42;;;;;;;6.05;3.65;;;4.30;92.70;;;;;;5164717;22;20063;-65
2022/03/08 01:25:42;;;;;;;5.82;3.05;;;4.30;93.00;;;;;;5163993;22;20140;-65
2022/03/08 01:27:43;;;;;;;5.97;3.58;;;4.40;94.90;;;;;;5164580;22;20008;-65
2022/03/08 01:29:44;;;;;;;7.53;3.80;;;4.40;96.70;;;;;;5164856;22;20008;-65
2022/03/08 01:31:44;;;;;;;5.70;3.33;;;4.40;97.30;;;;;;5162066;23;20012;-65
2022/03/08 01:33:45;;;;;;;7.22;4.10;;;4.40;95.10;;;;;;5164796;22;20015;-65
2022/03/08 01:35:46;;;;;;;6.00;3.95;;;4.20;92.70;;;;;;5163817;22;20008;-65
2022/03/08 01:37:46;;;;;;;6.45;4.03;;;4.20;95.80;;;;;;5165332;22;20061;-66
2022/03/08 01:39:47;;;;;;;6.13;3.22;;;4.30;99.80;;;;;;5165358;22;20071;-65
2022/03/08 01:41:48;;;;;;;5.70;3.67;;;4.30;99.90;;;;;;5163956;22;20328;-66
2022/03/08 01:43:49;;;;;;;7.47;3.95;;;4.40;99.90;;;;;;5165233;22;20308;-65
2022/03/08 01:45:49;;;;;;;5.53;3.53;;;4.40;95.60;;;;;;5164274;22;20009;-65
2022/03/08 01:47:51;;;;;;;6.05;3.65;;;4.30;96.40;;;;;;5165016;22;20091;-65
2022/03/08 01:49:53;;;;;;;6.47;3.40;;;4.30;96.10;;;;;;5163720;22;20062;-66
2022/03/08 01:51:54;;;;;;;5.90;3.90;;;4.30;95.10;;;;;;5165571;22;20031;-65
2022/03/08 01:53:54;;;;;;;5.45;3.92;;;4.30;95.20;;;;;;5164838;22;20008;-65
2022/03/08 01:55:55;;;;;;;5.60;3.42;;;4.30;96.00;;;;;;5165568;22;20059;-65
2022/03/08 01:57:56;;;;;;;5.82;3.70;;;4.30;94.70;;;;;;5166021;22;20012;-65
2022/03/08 01:59:56;;;;;;;5.43;3.45;;;4.30;93.40;;;;;;5166019;22;20004;-65
2022/03/08 02:01:57;;;;;;;6.07;3.95;;;4.30;97.90;;;;;;5165220;22;20065;-65
2022/03/08 02:03:58;;;;;;;4.88;3.47;;;4.30;96.00;;;;;;5166120;22;20004;-65
2022/03/08 02:05:59;;;;;;;5.95;3.78;;;4.30;99.60;;;;;;5165139;22;20109;-65
2022/03/08 02:07:59;;;;;;;4.75;3.22;;;4.30;98.30;;;;;;5162606;23;20135;-65
2022/03/08 02:10:00;;;;;;;5.90;3.83;;;4.30;94.80;;;;;;5165658;22;20005;-66
2022/03/08 02:12:01;;;;;;;7.82;3.90;;;4.20;93.10;;;;;;5187116;22;20007;-65
2022/03/08 02:14:02;;;;;;;5.75;3.58;;;4.20;92.70;;;;;;5165820;22;20005;-65
2022/03/08 02:16:03;;;;;;;4.78;3.30;;;4.20;94.90;;;;;;5164674;22;20016;-65
2022/03/08 02:18:03;;;;;;;7.28;3.72;;;4.30;99.20;;;;;;5165179;22;20380;-65
2022/03/08 02:20:05;;;;;;;6.75;4.10;;;4.10;95.30;;;;;;5165259;22;20491;-67
2022/03/08 02:22:05;;;;;;;6.35;3.63;;;4.10;94.60;;;;;;5164028;22;20392;-64
2022/03/08 02:24:06;;;;;;;5.20;3.90;;;4.20;95.80;;;;;;5165504;22;20123;-64
2022/03/08 02:26:07;;;;;;;6.10;3.45;;;4.20;99.50;;;;;;5164350;22;20455;-64
2022/03/08 02:28:08;;;;;;;5.90;3.50;;;4.20;98.30;;;;;;5188449;22;20095;-65
2022/03/08 02:30:10;;;;;;;5.95;3.33;;;4.30;99.90;;;;;;5164447;22;20048;-65
2022/03/08 02:32:11;;;;;;;4.55;3.10;;;4.30;99.90;;;;;;5164785;22;20008;-65
2022/03/08 02:34:12;;;;;;;5.88;3.80;;;4.40;99.90;;;;;;5164858;22;20019;-65
2022/03/08 02:36:12;;;;;;;6.03;3.60;;;4.40;99.90;;;;;;5163828;22;20004;-65
2022/03/08 02:38:13;;;;;;;7.32;3.47;;;4.40;99.90;;;;;;5165035;22;20543;-65
2022/03/08 02:40:17;;;;;;;6.53;3.53;;;4.40;99.90;;;;;;5163799;22;20350;-65
2022/03/08 02:42:18;;;;;;;6.15;3.60;;;4.40;99.90;;;;;;5164199;22;20359;-65
2022/03/08 02:44:19;;;;;;;6.07;3.58;;;4.40;99.90;;;;;;5164775;22;20057;-66
2022/03/08 02:46:19;;;;;;;6.68;3.47;;;4.40;99.90;;;;;;5163562;22;20467;-66
2022/03/08 02:48:24;;;;;;;6.53;3.88;;;4.50;99.90;;;;;;5164372;22;20019;-65
2022/03/08 02:50:25;;;;;;;6.13;3.85;;;4.40;98.90;;;;;;5161436;22;20035;-65
2022/03/08 02:52:25;;;;;;;6.18;3.65;;;4.40;97.00;;;;;;5163933;22;20020;-65
2022/03/08 02:54:26;;;;;;;6.65;3.80;;;4.40;99.90;;;;;;5165531;22;20043;-65
2022/03/08 02:56:26;;;;;;;4.95;3.63;;;4.40;99.70;;;;;;5164966;22;20008;-65
2022/03/08 02:58:27;;;;;;;6.97;3.65;;;4.40;99.90;;;;;;5165551;22;20024;-65
2022/03/08 03:00:29;;;;;;;6.05;3.40;;;4.30;99.90;;;;;;5164805;22;20024;-65
2022/03/08 03:02:30;;;;;;;4.47;3.33;;;4.30;96.20;;;;;;5165313;22;20381;-65
2022/03/08 03:04:30;;;;;;;5.85;3.85;;;4.30;99.90;;;;;;5165223;22;20066;-65
2022/03/08 03:06:34;;;;;;;7.05;3.75;;;4.30;99.10;;;;;;5164486;22;20043;-64
2022/03/08 03:08:34;;;;;;;6.57;3.80;;;4.30;99.90;;;;;;5165359;22;20329;-65
2022/03/08 03:10:35;;;;;;;5.35;3.00;;;4.20;99.30;;;;;;5164525;22;20015;-65
2022/03/08 03:12:36;;;;;;;6.10;4.00;;;4.20;99.90;;;;;;5164113;22;20039;-65
2022/03/08 03:14:37;;;;;;;7.00;3.85;;;4.20;99.90;;;;;;5164901;22;20039;-65
2022/03/08 03:16:37;;;;;;;6.18;3.90;;;4.20;96.80;;;;;;5164291;22;20019;-65
2022/03/08 03:18:38;;;;;;;8.65;3.90;;;4.20;99.90;;;;;;5164595;22;20384;-65
2022/03/08 03:20:38;;;;;;;7.25;4.13;;;4.10;96.00;;;;;;5164077;22;20202;-65
2022/03/08 03:22:39;;;;;;;6.45;3.72;;;4.10;95.50;;;;;;5164578;22;20004;-65
2022/03/08 03:24:40;;;;;;;5.82;3.65;;;4.10;98.80;;;;;;5164884;22;20050;-65
2022/03/08 03:26:40;;;;;;;6.05;3.70;;;4.10;99.90;;;;;;5163519;22;20012;-65
2022/03/08 03:28:41;;;;;;;8.20;3.80;;;4.00;96.30;;;;;;5164127;22;20091;-65
2022/03/08 03:30:42;;;;;;;5.80;4.03;;;4.00;96.90;;;;;;5163702;22;20012;-65
2022/03/08 03:32:43;;;;;;;5.65;3.78;;;4.00;98.00;;;;;;5164541;22;20379;-65
2022/03/08 03:34:43;;;;;;;5.25;3.60;;;3.90;96.00;;;;;;5163993;22;20016;-65
2022/03/08 03:36:44;;;;;;;5.90;3.33;;;3.90;96.10;;;;;;5163541;22;20452;-65
2022/03/08 03:38:44;;;;;;;6.03;4.05;;;3.90;95.50;;;;;;5163745;22;20016;-65
2022/03/08 03:40:45;;;;;;;7.10;4.15;;;3.90;96.00;;;;;;5163405;22;20075;-65
2022/03/08 03:42:46;;;;;;;4.63;3.53;;;3.90;97.10;;;;;;5164083;22;20062;-65
2022/03/08 03:44:46;;;;;;;6.78;4.35;;;3.80;95.70;;;;;;5163595;22;20320;-65
2022/03/08 03:46:47;;;;;;;6.28;3.92;;;3.80;96.60;;;;;;5163158;22;20435;-65
2022/03/08 03:48:48;;;;;;;7.03;3.90;;;3.80;98.10;;;;;;5163675;22;20032;-66
2022/03/08 03:50:48;;;;;;;7.47;4.28;;;3.80;98.80;;;;;;5163315;22;20004;-65
2022/03/08 03:52:49;;;;;;;7.30;4.00;;;3.70;96.40;;;;;;5161753;23;20019;-65
2022/03/08 03:54:49;;;;;;;5.03;3.45;;;3.70;96.60;;;;;;5163997;22;20522;-65
2022/03/08 03:56:50;;;;;;;6.40;4.00;;;3.70;96.50;;;;;;5163053;22;20412;-65
2022/03/08 03:58:51;;;;;;;6.43;4.43;;;3.70;98.60;;;;;;5163450;22;20471;-65
2022/03/08 04:00:51;;;;;;;7.07;4.30;;;3.60;95.70;;;;;;5162328;22;20456;-65
2022/03/08 04:02:52;;;;;;;5.45;4.03;;;3.60;96.70;;;;;;5162642;22;20004;-65
2022/03/08 04:04:53;;;;;;;8.60;4.43;;;3.60;96.50;;;;;;5163750;22;20012;-65
2022/03/08 04:06:53;;;;;;;7.28;4.05;;;3.60;97.80;;;;;;5162306;22;20008;-66
2022/03/08 04:08:54;;;;;;;8.60;4.95;;;3.60;96.40;;;;;;5165174;22;20092;-65
2022/03/08 04:10:55;;;;;;;5.78;4.28;;;3.50;96.10;;;;;;5164272;22;20016;-65
2022/03/08 04:12:55;;;;;;;6.38;4.03;;;3.60;98.00;;;;;;5164416;22;20087;-65
2022/03/08 04:14:56;;;;;;;5.30;4.00;;;3.60;98.90;;;;;;5164595;22;20012;-65
2022/03/08 04:16:57;;;;;;;5.95;3.97;;;3.50;96.30;;;;;;5164440;22;20007;-65
2022/03/08 04:18:57;;;;;;;5.55;3.95;;;3.50;96.70;;;;;;5165017;22;20063;-66
2022/03/08 04:20:58;;;;;;;6.40;4.07;;;3.50;97.50;;;;;;5164174;22;20027;-65
2022/03/08 04:22:59;;;;;;;7.40;4.25;;;3.60;98.00;;;;;;5164855;22;20019;-65
2022/03/08 04:24:59;;;;;;;6.28;4.00;;;3.60;99.40;;;;;;5164935;22;20344;-65
2022/03/08 04:27:00;;;;;;;6.47;4.45;;;3.60;99.90;;;;;;5164026;22;20016;-65
2022/03/08 04:29:00;;;;;;;7.00;4.18;;;3.60;99.30;;;;;;5164917;22;20016;-65
2022/03/08 04:31:01;;;;;;;6.05;3.92;;;3.50;98.70;;;;;;5163820;22;20499;-65
2022/03/08 04:33:02;;;;;;;5.50;4.10;;;3.50;98.50;;;;;;5164428;22;20070;-65
2022/03/08 04:35:03;;;;;;;8.13;3.83;;;3.60;99.30;;;;;;5164561;22;20011;-66
2022/03/08 04:37:04;;;;;;;5.95;3.78;;;3.60;99.90;;;;;;5163895;22;20039;-65
2022/03/08 04:39:04;;;;;;;6.43;4.30;;;3.60;98.80;;;;;;5164795;22;20024;-65
2022/03/08 04:41:06;;;;;;;6.72;3.95;;;3.60;98.00;;;;;;5163533;22;20317;-65
2022/03/08 04:43:06;;;;;;;5.88;4.15;;;3.60;99.30;;;;;;5164251;22;20017;-64
2022/03/08 04:45:09;;;;;;;8.02;4.30;;;3.60;99.90;;;;;;5163479;22;20011;-65
2022/03/08 04:47:09;;;;;;;;;;;3.40;97.00;;;;;;5164731;22;20424;-65
2022/03/08 04:49:10;;;;;;;7.68;4.00;;;3.30;99.20;;;;;;5163175;22;19919;-65
2022/03/08 04:51:11;;;;;;;9.25;4.72;;;3.40;98.70;;;;;;5162382;22;20040;-65
2022/03/08 04:53:12;;;;;;;6.38;4.07;;;3.30;97.30;;;;;;5163831;22;20441;-65
2022/03/08 04:55:13;;;;;;;4.72;3.78;;;3.40;99.90;;;;;;5162691;22;20042;-66
2022/03/08 04:57:14;;;;;;;6.38;4.25;;;3.40;98.50;;;;;;5165755;22;20015;-65
2022/03/08 04:59:15;;;;;;;7.22;4.22;;;3.20;99.20;;;;;;5165313;22;20099;-65
2022/03/08 05:01:16;;;;;;;5.25;3.80;;;3.30;99.90;;;;;;5162947;22;20028;-65
2022/03/08 05:03:17;;;;;;;6.18;4.05;;;3.40;99.90;;;;;;5164744;22;20374;-65
2022/03/08 05:05:17;;;;;;;6.53;3.95;;;3.30;99.50;;;;;;5162133;23;20016;-65
2022/03/08 05:07:18;;;;;;;7.57;4.45;;;3.40;99.90;;;;;;5165198;22;20012;-65
2022/03/08 05:09:19;;;;;;;9.45;4.93;;;3.40;99.20;;;;;;5164607;22;20091;-66
2022/03/08 05:11:20;;;;;;;6.43;4.00;;;3.30;98.00;;;;;;5164743;22;20004;-65
2022/03/08 05:13:20;;;;;;;7.10;4.63;;;3.30;99.90;;;;;;5163148;22;20008;-66
2022/03/08 05:15:21;;;;;;;6.00;4.30;;;3.30;99.90;;;;;;5162469;22;20009;-65
2022/03/08 05:17:21;;;;;;;7.07;4.55;;;3.30;99.80;;;;;;5163433;22;20012;-66
2022/03/08 05:19:22;;;;;;;6.95;4.13;;;3.20;98.30;;;;;;5163157;22;20023;-65
2022/03/08 05:21:23;;;;;;;6.32;4.35;;;3.30;99.90;;;;;;5162043;22;20428;-65
2022/03/08 05:23:24;;;;;;;7.85;4.65;;;3.30;99.90;;;;;;5162962;22;20004;-65
2022/03/08 05:25:24;;;;;;;6.28;4.35;;;3.40;99.90;;;;;;5162297;22;20386;-65
2022/03/08 05:27:25;;;;;;;7.38;4.32;;;3.40;99.90;;;;;;5162977;22;20451;-65
2022/03/08 05:29:26;;;;;;;7.55;4.68;;;3.30;98.20;;;;;;5163111;22;20039;-66
2022/03/08 05:31:26;;;;;;;7.57;4.80;;;3.10;97.50;;;;;;5160532;23;20075;-66
2022/03/08 05:33:27;;;;;;;10.13;5.32;;;3.10;97.70;;;;;;5164568;22;20008;-65
2022/03/08 05:35:27;;;;;;;9.38;4.90;;;2.90;97.60;;;;;;5162587;22;20008;-65
2022/03/08 05:37:28;;;;;;;7.47;4.70;;;2.70;98.10;;;;;;5164184;22;20071;-65
2022/03/08 05:39:29;;;;;;;7.40;5.05;;;2.60;99.50;;;;;;5164717;22;20004;-65
2022/03/08 05:41:29;;;;;;;8.43;4.93;;;2.50;99.90;;;;;;5163753;22;20306;-65
2022/03/08 05:43:30;;;;;;;8.68;5.05;;;2.40;99.90;;;;;;5164255;22;20008;-66
2022/03/08 05:45:30;;;;;;;7.45;5.43;;;2.50;99.90;;;;;;5162612;22;20012;-65
2022/03/08 05:47:31;;;;;;;10.05;5.43;;;2.30;99.90;;;;;;5159558;22;20016;-65
2022/03/08 05:49:32;;;;;;;8.05;4.68;;;2.40;99.90;;;;;;5164441;22;20032;-65
2022/03/08 05:51:32;;;;;;;8.07;4.28;;;2.50;99.90;;;;;;5159793;23;20008;-65
2022/03/08 05:53:33;;;;;;;7.35;4.10;;;2.60;99.90;;;;;;5163904;22;20020;-65
2022/03/08 05:55:33;;;;;;;7.28;4.13;;;2.70;99.90;;;;;;5162673;22;20063;-64
2022/03/08 05:57:34;;;;;;;8.18;4.35;;;2.70;99.90;;;;;;5163701;22;20054;-65
2022/03/08 05:59:35;;;;;;;7.45;4.85;;;2.70;99.90;;;;;;5164131;22;20016;-65
2022/03/08 06:01:35;;;;;;;10.52;4.93;;;2.70;99.90;;;;;;5163348;22;20348;-65
2022/03/08 06:03:36;;;;;;;10.35;5.60;;;2.70;99.90;;;;;;5163625;22;20034;-65
2022/03/08 06:05:36;;;;;;;6.30;4.68;;;2.60;99.90;;;;;;5163163;22;20486;-65
2022/03/08 06:07:37;;;;;;;6.85;4.25;;;2.70;99.90;;;;;;5163712;22;20393;-65
2022/03/08 06:09:38;;;;;;;7.82;4.47;;;2.80;99.90;;;;;;5161903;22;20081;-65
2022/03/08 06:11:39;;;;;;;8.18;4.45;;;2.80;99.90;;;;;;5163177;22;23132;-65
2022/03/08 06:13:39;;;;;;;9.10;4.95;;;3.00;99.90;;;;;;5163530;22;20447;-65
2022/03/08 06:15:40;;;;;;;8.40;5.05;;;2.90;99.90;;;;;;5162354;22;20035;-65
2022/03/08 06:17:41;;;;;;;8.40;4.97;;;2.90;99.90;;;;;;5163871;22;20016;-65
2022/03/08 06:19:42;;;;;;;6.47;4.45;;;3.10;99.90;;;;;;5163705;22;20039;-65
2022/03/08 06:21:42;;;;;;;8.45;5.38;;;3.00;99.90;;;;;;5162086;22;20091;-64
2022/03/08 06:23:43;;;;;;;6.80;5.13;;;2.90;99.90;;;;;;5162052;22;20099;-64
2022/03/08 06:25:43;;;;;;;9.25;4.68;;;2.80;99.90;;;;;;5161973;22;20012;-65
2022/03/08 06:27:44;;;;;;;6.88;4.70;;;2.90;99.90;;;;;;5163081;22;20012;-64
2022/03/08 06:29:45;;;;;;;8.70;5.00;;;2.90;99.90;;;;;;5162961;22;20317;-64
2022/03/08 06:31:45;;;;;;;8.57;4.85;;;2.90;99.90;;;;;;5161846;22;20009;-64
2022/03/08 06:33:46;;;;;;;7.93;4.88;;;3.00;99.90;;;;;;5162735;22;20382;-64
2022/03/08 06:35:46;;;;;;;8.90;5.35;;;2.90;99.90;;;;;;5161977;22;20020;-65
2022/03/08 06:37:47;;;;;;;7.88;5.00;;;2.90;99.90;;;;;;5162767;22;22665;-64
2022/03/08 06:39:48;;;;;;;8.07;5.03;;;3.00;99.90;;;;;;5162555;22;20040;-64
2022/03/08 06:41:49;;;;;;;9.80;5.15;;;3.00;99.90;;;;;;5161516;22;20456;-64
2022/03/08 06:43:49;;;;;;;8.35;5.18;;;3.10;99.90;;;;;;5162647;22;20009;-64
2022/03/08 06:45:50;;;;;;;7.15;4.43;;;3.10;99.90;;;;;;5161559;22;20008;-64
2022/03/08 06:47:50;;;;;;;11.18;5.65;;;3.00;99.90;;;;;;5162872;22;20005;-64
2022/03/08 06:49:51;;;;;;;7.28;4.90;;;3.00;99.90;;;;;;5162733;22;20008;-64
2022/03/08 06:51:51;;;;;;;9.65;5.40;;;3.10;99.90;;;;;;5161743;22;20016;-64
2022/03/08 06:53:52;;;;;;;7.80;5.30;;;3.10;99.90;;;;;;5162873;22;20112;-64
2022/03/08 06:55:53;;;;;;;10.38;5.38;;;3.10;99.90;;;;;;5162150;22;20065;-64
2022/03/08 06:57:53;;;;;;;10.90;5.75;;;3.20;99.90;;;;;;5162538;22;20440;-64
2022/03/08 06:59:54;;;;;;;8.32;5.10;;;3.10;99.90;;;;;;5162432;22;20396;-65
2022/03/08 07:01:56;;;;;;;10.05;5.40;;;3.20;99.90;;;;;;5159603;23;20004;-64
2022/03/08 07:03:57;;;;;;;9.43;5.38;;;3.30;99.90;;;;;;5160453;23;20004;-64
2022/03/08 07:05:57;;;;;;;8.43;5.22;;;3.60;99.90;;;;;;5161637;22;20378;-65
2022/03/08 07:07:58;;;;;;;7.90;5.15;;;3.90;99.90;;;;;;5138648;22;20334;-65
2022/03/08 07:09:59;;;;;;;8.55;5.20;;;4.20;99.90;;;;;;5138532;22;20008;-65
2022/03/08 07:12:00;;;;;;;8.23;5.50;;;4.40;99.90;;;;;;5136587;22;20341;-64
2022/03/08 07:14:00;;;;;;;9.85;5.30;;;4.60;99.90;;;;;;5138455;22;20016;-64
2022/03/08 07:16:01;;;;;;;11.15;5.95;;;4.90;99.90;;;;;;5138017;22;20083;-65
2022/03/08 07:18:02;;;;;;;10.02;5.68;;;5.10;99.90;;;;;;5138592;22;20603;-65
2022/03/08 07:20:03;;;;;;;10.13;5.38;;;5.40;99.90;;;;;;5138018;22;20032;-65
2022/03/08 07:22:04;;;;;;;10.30;5.50;;;5.50;99.20;;;;;;5137432;22;20080;-65
2022/03/08 07:24:05;;;;;;;13.20;6.43;;;5.80;99.90;;;;;;5138587;22;20047;-65
2022/03/08 07:26:06;;;;;;;11.85;5.50;;;5.90;96.60;;;;;;5137295;22;20383;-65
2022/03/08 07:28:07;;;;;;;9.90;5.60;;;6.20;99.90;;;;;;5138262;22;20020;-65
2022/03/08 07:30:09;;;;;;;10.68;6.00;;;6.60;97.50;;;;;;5137615;22;20013;-65
2022/03/08 07:32:09;;;;;;;10.70;5.00;;;6.80;98.00;;;;;;5137889;22;20048;-65
2022/03/08 07:34:10;;;;;;;9.77;5.75;;;7.10;96.40;;;;;;5137964;22;20086;-65
2022/03/08 07:36:11;;;;;;;8.63;5.28;;;7.30;96.00;;;;;;5136750;22;20048;-65
2022/03/08 07:38:11;;;;;;;7.85;5.18;;;7.60;94.80;;;;;;5137610;22;20024;-65
2022/03/08 07:40:12;;;;;;;10.27;5.10;;;8.00;95.10;;;;;;5136416;22;20009;-66
2022/03/08 07:42:13;;;;;;;8.50;5.10;;;8.10;89.20;;;;;;5133767;22;20004;-65
2022/03/08 07:44:13;;;;;;;7.78;4.20;;;8.40;91.10;;;;;;5136890;22;20112;-65
2022/03/08 07:46:15;;;;;;;8.50;5.15;;;8.70;93.70;;;;;;5136557;22;20013;-65
2022/03/08 07:48:15;;;;;;;8.18;5.20;;;9.00;88.30;;;;;;5135736;22;20068;-65
2022/03/08 07:50:17;;;;;;;5.93;4.22;;;9.20;91.10;;;;;;5135556;22;20012;-65
2022/03/08 07:52:18;;;;;;;8.85;4.90;;;9.60;91.40;;;;;;5135958;22;20471;-66
2022/03/08 07:54:18;;;;;;;6.20;4.03;;;9.70;79.80;;;;;;5137432;22;20017;-65
2022/03/08 07:56:19;;;;;;;6.88;4.82;;;9.80;85.10;;;;;;5134523;23;20326;-65
2022/03/08 07:58:20;;;;;;;7.07;4.55;;;9.80;79.20;;;;;;5136885;22;20020;-65
2022/03/08 08:00:21;;;;;;;8.27;5.25;;;10.10;80.20;;;;;;5135298;22;20040;-66
2022/03/08 08:02:21;;;;;;;8.85;4.80;;;10.50;82.50;;;;;;5137136;22;20019;-65
2022/03/08 08:04:23;;;;;;;11.40;4.85;;;10.70;78.30;;;;;;5137270;22;20433;-65
2022/03/08 08:06:24;;;;;;;6.18;4.32;;;11.00;76.20;;;;;;5136530;22;20008;-65
2022/03/08 08:08:24;;;;;;;6.85;4.65;;;11.10;72.10;;;;;;5137363;22;20383;-65
2022/03/08 08:10:25;;;;;;;8.05;4.70;;;11.30;71.40;;;;;;5136341;22;20016;-65
2022/03/08 08:12:26;;;;;;;8.85;4.35;;;11.30;67.10;;;;;;5137259;22;20040;-66
2022/03/08 08:14:27;;;;;;;10.20;4.93;;;11.10;68.30;;;;;;5137256;22;20009;-66
2022/03/08 08:16:27;;;;;;;6.55;4.35;;;11.70;73.70;;;;;;5136185;22;20017;-65
2022/03/08 08:18:28;;;;;;;7.15;4.03;;;11.90;68.60;;;;;;5136891;22;20456;-65
2022/03/08 08:20:28;;;;;;;5.93;4.00;;;12.10;71.50;;;;;;5140262;22;20087;-66
2022/03/08 08:22:29;;;;;;;6.10;3.63;;;11.70;63.10;;;;;;5136763;22;20154;-65
2022/03/08 08:24:30;;;;;;;6.13;3.20;;;11.60;60.30;;;;;;5137915;22;20004;-66
2022/03/08 08:26:30;;;;;;;5.95;3.75;;;11.50;60.00;;;;;;5137316;22;20393;-66
2022/03/08 08:28:31;;;;;;;6.32;3.38;;;11.20;59.80;;;;;;5138026;22;20091;-65
2022/03/08 08:30:32;;;;;;;6.28;3.50;;;11.30;61.00;;;;;;5136457;22;20047;-66
2022/03/08 08:32:32;;;;;;;6.85;4.28;;;11.20;61.30;;;;;;5138273;22;20322;-66
2022/03/08 08:34:33;;;;;;;5.03;3.63;;;11.30;60.10;;;;;;5159966;22;20059;-65
2022/03/08 08:36:34;;;;;;;4.78;3.72;;;11.40;63.40;;;;;;5137269;22;20023;-66
2022/03/08 08:38:34;;;;;;;5.10;3.83;;;11.30;59.40;;;;;;5156236;22;20032;-66
2022/03/08 08:40:35;;;;;;;4.43;3.63;;;11.10;60.00;;;;;;5137135;23;20013;-65
2022/03/08 08:42:36;;;;;;;5.60;3.67;;;11.00;60.90;;;;;;5138008;23;20099;-65
2022/03/08 08:44:37;;;;;;;5.90;4.00;;;11.00;61.80;;;;;;5137928;23;20419;-66
2022/03/08 08:46:38;;;;;;;7.93;4.25;;;10.50;60.30;;;;;;5135808;23;20318;-65
2022/03/08 08:48:38;;;;;;;9.15;4.22;;;10.20;60.90;;;;;;5137447;23;20083;-65
2022/03/08 08:50:39;;;;;;;4.95;3.65;;;10.20;61.60;;;;;;5135844;23;20016;-65
2022/03/08 08:52:40;;;;;;;5.43;3.63;;;10.10;61.80;;;;;;5137650;23;20448;-66
2022/03/08 08:54:40;;;;;;;8.60;4.38;;;10.20;64.50;;;;;;5137854;23;20036;-66
2022/03/08 08:56:41;;;;;;;7.50;4.35;;;10.10;60.30;;;;;;5136636;23;20012;-66
2022/03/08 08:58:41;;;;;;;5.07;3.65;;;10.00;60.00;;;;;;5137035;23;20511;-65
2022/03/08 09:00:42;;;;;;;6.35;3.65;;;10.00;61.70;;;;;;5135845;23;20099;-65
2022/03/08 09:02:44;;;;;;;5.68;3.92;;;10.00;59.70;;;;;;5136944;23;20017;-65
2022/03/08 09:04:44;;;;;;;6.55;3.88;;;10.10;61.20;;;;;;5136993;23;20463;-65
2022/03/08 09:06:45;;;;;;;6.93;4.07;;;9.80;59.60;;;;;;5136251;23;20009;-65
2022/03/08 09:08:46;;;;;;;6.35;4.15;;;9.70;60.00;;;;;;5137612;23;20428;-65
2022/03/08 09:10:46;;;;;;;5.47;3.67;;;9.60;60.30;;;;;;5136339;23;20016;-65
2022/03/08 09:12:50;;;;;;;5.97;4.10;;;9.60;62.40;;;;;;5137375;23;20440;-64
2022/03/08 09:14:50;;;;;;;10.07;4.00;;;9.50;60.60;;;;;;5137454;23;20047;-65
2022/03/08 09:16:51;;;;;;;6.75;3.95;;;9.30;60.30;;;;;;5135300;23;20437;-65
2022/03/08 09:18:52;;;;;;;6.10;3.85;;;9.30;60.40;;;;;;5136681;23;20037;-65
2022/03/08 09:20:52;;;;;;;6.05;3.65;;;9.20;61.00;;;;;;5135741;23;20008;-65
2022/03/08 09:22:53;;;;;;;5.78;3.45;;;9.40;63.40;;;;;;5137034;23;20020;-64
2022/03/08 09:24:54;;;;;;;7.55;4.00;;;9.60;62.70;;;;;;5136963;23;20005;-64
2022/03/08 09:26:54;;;;;;;8.45;4.00;;;9.60;61.10;;;;;;5135848;23;20507;-65
2022/03/08 09:28:55;;;;;;;6.90;3.67;;;9.60;61.00;;;;;;5136881;23;20136;-65
2022/03/08 09:30:56;;;;;;;3.97;3.40;;;9.60;59.70;;;;;;5135948;23;20016;-64
2022/03/08 09:32:58;;;;;;;6.15;3.42;;;9.50;59.90;;;;;;5136504;23;20464;-66
2022/03/08 09:34:58;;;;;;;4.57;3.40;;;9.60;60.20;;;;;;5136273;22;20013;-65
2022/03/08 09:36:59;;;;;;;6.78;3.72;;;9.60;59.90;;;;;;5137787;22;20035;-65
2022/03/08 09:39:00;;;;;;;5.15;3.25;;;9.70;59.00;;;;;;5138264;22;20400;-65
2022/03/08 09:41:03;;;;;;;5.90;3.75;;;9.80;60.40;;;;;;5135413;22;20389;-64
2022/03/08 09:43:04;;;;;;;4.70;3.17;;;9.70;59.20;;;;;;5140062;22;20009;-65
2022/03/08 09:45:05;;;;;;;13.48;3.70;;;9.80;60.90;;;;;;5138854;22;20040;-66
2022/03/08 09:47:06;;;;;;;4.60;3.28;;;9.70;59.10;;;;;;5138783;22;20433;-65
2022/03/08 09:49:07;;;;;;;7.10;3.28;;;9.80;61.30;;;;;;5138183;22;20016;-65
2022/03/08 09:51:08;;;;;;;10.02;3.63;;;9.70;59.40;;;;;;5138494;22;20009;-65
2022/03/08 09:53:11;;;;;;;5.80;3.50;;;9.60;58.30;;;;;;5139098;22;20024;-65
2022/03/08 09:55:16;;;;;;;4.97;3.45;;;9.70;60.80;;;;;;5137436;23;20457;-65
2022/03/08 09:57:18;;;;;;;6.50;3.75;;;9.90;62.50;;;;;;5137541;22;20097;-65
2022/03/08 09:59:20;;;;;;;5.60;3.08;;;9.50;57.40;;;;;;5136587;23;20012;-65
2022/03/08 10:01:20;;;;;;;4.78;3.00;;;9.60;57.70;;;;;;5137286;23;20028;-65
2022/03/08 10:03:50;;;;;;;6.47;3.10;;;9.70;57.50;;;;;;5138312;23;20441;-65
2022/03/08 10:05:55;;;;;;;7.75;3.58;;;9.60;57.60;;;;;;5117251;23;20058;-65
2022/03/08 10:08:22;;;;;;;13.63;3.13;;;9.50;57.60;;;;;;5137151;23;20341;-65
2022/03/08 10:10:23;;;;;;;6.47;3.38;;;9.50;58.30;;;;;;5156549;22;20019;-65
2022/03/08 10:12:25;;;;;;;6.07;3.53;;;9.50;58.30;;;;;;5163202;22;20004;-65
2022/03/08 10:14:39;;;;;;;5.50;3.42;;;9.50;58.70;;;;;;5163377;22;20428;-65
2022/03/08 10:16:43;;;;;;;7.18;3.65;;;9.50;58.10;;;;;;5136792;23;20017;-65
2022/03/08 10:18:49;;;;;;;4.90;3.30;;;9.70;59.50;;;;;;5137428;23;20021;-64
2022/03/08 10:20:50;;;;;;;4.20;3.20;;;9.70;57.30;;;;;;5137351;23;20012;-65
2022/03/08 10:22:50;;;;;;;6.28;3.38;;;9.60;57.70;;;;;;5137614;23;20015;-65
2022/03/08 10:24:51;;;;;;;7.82;3.88;;;9.60;57.60;;;;;;5137792;23;20324;-65
2022/03/08 10:27:01;;;;;;;8.70;3.40;;;9.70;57.20;;;;;;5137151;23;20316;-65
2022/03/08 10:29:03;;;;;;;6.70;3.70;;;9.60;56.80;;;;;;5136866;23;20013;-65
2022/03/08 10:31:12;;;;;;;4.40;2.90;;;9.70;57.10;;;;;;5138721;23;20008;-65
2022/03/08 10:33:19;;;;;;;4.68;3.50;;;9.80;58.20;;;;;;5138751;23;20032;-65
2022/03/08 10:35:25;;;;;;;7.43;3.20;;;9.80;57.80;;;;;;5137222;23;20314;-65
2022/03/08 10:37:27;;;;;;;6.78;3.22;;;9.80;57.90;;;;;;5137442;23;20286;-65